Time;durP1;ratioP1;P1;durP2;ratioP2;P2;SDS_P1;SDS_P2;PMS_P1;PMS_P2;Temp;Humidity;BMP_temperature;BMP_pressure;BME280_temperature;BME280_humidity;BME280_pressure;Samples;Min_cycle;Max_cycle;Signal;HPM_P1;HPM_P2
2022/03/15 00:01:39;;;;;;;;;;;21.60;37.70;;;;;;5054902;28;19978;-47
2022/03/15 00:04:06;;;;;;;;;;;21.60;37.70;;;;;;5074271;28;20326;-47
2022/03/15 00:06:36;;;;;;;;;;;21.60;38.30;;;;;;5074562;28;19924;-42
2022/03/15 00:09:02;;;;;;;;;;;21.60;37.70;;;;;;5074289;28;19968;-45
2022/03/15 00:11:30;;;;;;;;;;;21.60;37.70;;;;;;5073573;28;19924;-44
2022/03/15 00:13:58;;;;;;;;;;;21.60;37.70;;;;;;5074228;28;19931;-43
2022/03/15 00:16:25;;;;;;;;;;;21.60;37.70;;;;;;5073876;28;19971;-43
2022/03/15 00:18:52;;;;;;;;;;;21.60;37.70;;;;;;5073138;28;19932;-49
2022/03/15 00:21:20;;;;;;;;;;;21.60;37.70;;;;;;5073576;28;20373;-46
2022/03/15 00:23:47;;;;;;;;;;;21.60;37.70;;;;;;5073690;28;20432;-47
2022/03/15 00:26:14;;;;;;;;;;;21.60;37.70;;;;;;5073459;28;19970;-44
2022/03/15 00:28:40;;;;;;;;;;;21.60;37.70;;;;;;5073948;28;20272;-45
2022/03/15 00:31:07;;;;;;;;;;;21.60;37.60;;;;;;5073719;28;19925;-44
2022/03/15 00:33:34;;;;;;;;;;;21.50;37.60;;;;;;5072806;28;19995;-45
2022/03/15 00:36:01;;;;;;;;;;;21.50;37.60;;;;;;5073998;28;20114;-44
2022/03/15 00:38:28;;;;;;;;;;;21.50;37.60;;;;;;5073604;28;19971;-45
2022/03/15 00:40:55;;;;;;;;;;;21.50;37.60;;;;;;5072877;28;20338;-46
2022/03/15 00:43:22;;;;;;;;;;;21.50;37.60;;;;;;5073468;28;19978;-45
2022/03/15 00:45:50;;;;;;;;;;;21.50;37.60;;;;;;5073510;28;20384;-44
2022/03/15 00:48:19;;;;;;;;;;;21.50;37.60;;;;;;5073074;28;19932;-47
2022/03/15 00:50:46;;;;;;;;;;;21.50;37.60;;;;;;5073546;28;19960;-44
2022/03/15 00:53:12;;;;;;;;;;;21.50;37.60;;;;;;5077129;28;19925;-43
2022/03/15 00:55:39;;;;;;;;;;;21.50;37.60;;;;;;5076843;28;19979;-48
2022/03/15 00:58:07;;;;;;;;;;;21.50;37.50;;;;;;5077842;28;20003;-45
2022/03/15 01:00:35;;;;;;;;;;;21.50;37.50;;;;;;5059828;28;19930;-48
2022/03/15 01:03:03;;;;;;;;;;;21.50;37.50;;;;;;5076909;28;20351;-46
2022/03/15 01:05:31;;;;;;;;;;;21.50;37.50;;;;;;5077710;28;20327;-45
2022/03/15 01:07:58;;;;;;;;;;;21.50;37.50;;;;;;5077713;28;19970;-45
2022/03/15 01:10:25;;;;;;;;;;;21.50;37.50;;;;;;5076566;28;19970;-46
2022/03/15 01:12:52;;;;;;;;;;;21.50;37.50;;;;;;5077577;28;20369;-44
2022/03/15 01:15:20;;;;;;;;;;;21.50;37.50;;;;;;5077198;28;19924;-45
2022/03/15 01:17:47;;;;;;;;;;;21.50;37.50;;;;;;5076440;28;19932;-45
2022/03/15 01:20:14;;;;;;;;;;;21.50;37.50;;;;;;5077008;28;20419;-46
2022/03/15 01:22:41;;;;;;;;;;;21.50;37.50;;;;;;5076851;28;20449;-43
2022/03/15 01:25:09;;;;;;;;;;;21.50;37.50;;;;;;5075594;28;20017;-43
2022/03/15 01:27:36;;;;;;;;;;;21.50;37.50;;;;;;5057256;28;20345;-44
2022/03/15 01:30:04;;;;;;;;;;;21.50;37.50;;;;;;5056930;28;20402;-48
2022/03/15 01:32:31;;;;;;;;;;;21.50;37.50;;;;;;5056709;28;19947;-48
2022/03/15 01:34:57;;;;;;;;;;;21.50;37.50;;;;;;5076556;28;19971;-46
2022/03/15 01:37:24;;;;;;;;;;;21.50;37.50;;;;;;5076718;28;19974;-46
2022/03/15 01:39:51;;;;;;;;;;;21.50;37.50;;;;;;5077705;28;19924;-44
2022/03/15 01:42:18;;;;;;;;;;;21.50;37.50;;;;;;5075980;28;20438;-45
2022/03/15 01:44:46;;;;;;;;;;;21.50;37.50;;;;;;5076583;28;19925;-49
2022/03/15 01:47:13;;;;;;;;;;;21.50;37.50;;;;;;5076929;28;19959;-45
2022/03/15 01:49:41;;;;;;;;;;;21.50;37.50;;;;;;5076269;28;19933;-44
2022/03/15 01:52:12;;;;;;;;;;;21.50;37.60;;;;;;5058869;28;20018;-45
2022/03/15 01:54:42;;;;;;;;;;;21.50;37.50;;;;;;5076466;28;20031;-46
2022/03/15 01:57:09;;;;;;;;;;;21.50;37.50;;;;;;5075675;28;19971;-45
2022/03/15 01:59:37;;;;;;;;;;;21.50;37.50;;;;;;5076715;28;19991;-42
2022/03/15 02:02:04;;;;;;;;;;;21.50;37.50;;;;;;5076685;28;20349;-44
2022/03/15 02:04:32;;;;;;;;;;;21.50;37.50;;;;;;5074250;28;20027;-44
2022/03/15 02:07:09;;;;;;;;;;;21.50;37.50;;;;;;5076267;28;20012;-45
2022/03/15 02:09:36;;;;;;;;;;;21.50;37.50;;;;;;5076510;28;20073;-44
2022/03/15 02:12:04;;;;;;;;;;;21.40;37.50;;;;;;5075545;28;20323;-43
2022/03/15 02:14:31;;;;;;;;;;;21.50;37.50;;;;;;5076148;28;19974;-45
2022/03/15 02:16:58;;;;;;;;;;;21.50;37.50;;;;;;5076393;28;19928;-46
2022/03/15 02:19:27;;;;;;;;;;;21.50;37.50;;;;;;5075557;28;19925;-53
2022/03/15 02:21:57;;;;;;;;;;;21.50;37.50;;;;;;5058528;28;19931;-54
2022/03/15 02:24:24;;;;;;;;;;;21.40;37.50;;;;;;5076088;28;20019;-52
2022/03/15 02:26:51;;;;;;;;;;;21.40;37.40;;;;;;5065919;28;19973;-50
2022/03/15 02:29:21;;;;;;;;;;;21.40;37.50;;;;;;5056113;28;19925;-52
2022/03/15 02:31:49;;;;;;;;;;;21.50;37.50;;;;;;5056095;28;20153;-45
2022/03/15 02:34:17;;;;;;;;;;;21.40;37.40;;;;;;5064464;28;20008;-46
2022/03/15 02:36:44;;;;;;;;;;;21.40;37.40;;;;;;5076033;28;20283;-52
2022/03/15 02:39:12;;;;;;;;;;;21.40;37.40;;;;;;5075916;28;19931;-43
2022/03/15 02:41:39;;;;;;;;;;;21.40;37.40;;;;;;5075284;28;20015;-45
2022/03/15 02:44:06;;;;;;;;;;;21.40;37.40;;;;;;5075486;28;19967;-49
2022/03/15 02:46:34;;;;;;;;;;;21.40;37.40;;;;;;5076113;28;19924;-47
2022/03/15 02:49:02;;;;;;;;;;;21.40;37.40;;;;;;5074734;28;19970;-46
2022/03/15 02:51:30;;;;;;;;;;;21.40;37.40;;;;;;5075473;28;19932;-48
2022/03/15 02:53:57;;;;;;;;;;;21.40;37.40;;;;;;5075705;28;19968;-46
2022/03/15 02:56:24;;;;;;;;;;;21.40;37.40;;;;;;5074751;28;20353;-42
2022/03/15 02:58:51;;;;;;;;;;;21.40;37.40;;;;;;5075543;28;19967;-42
2022/03/15 03:01:19;;;;;;;;;;;21.40;37.40;;;;;;5075196;28;19925;-43
2022/03/15 03:03:47;;;;;;;;;;;21.40;37.40;;;;;;5072316;28;19929;-46
2022/03/15 03:06:14;;;;;;;;;;;21.40;37.40;;;;;;5055440;28;19924;-45
2022/03/15 03:08:41;;;;;;;;;;;21.40;37.40;;;;;;5055384;28;19931;-46
2022/03/15 03:11:08;;;;;;;;;;;21.40;37.40;;;;;;5055006;28;19968;-45
2022/03/15 03:13:37;;;;;;;;;;;21.40;37.40;;;;;;5074613;28;19939;-44
2022/03/15 03:16:06;;;;;;;;;;;21.40;37.40;;;;;;5074685;28;20415;-46
2022/03/15 03:18:34;;;;;;;;;;;21.40;37.40;;;;;;5074881;28;19925;-44
2022/03/15 03:21:03;;;;;;;;;;;21.40;37.40;;;;;;5074202;28;19976;-45
2022/03/15 03:23:31;;;;;;;;;;;21.40;37.40;;;;;;5074693;28;19929;-46
2022/03/15 03:25:59;;;;;;;;;;;21.40;37.40;;;;;;5074748;28;20007;-44
2022/03/15 03:28:38;;;;;;;;;;;21.40;37.40;;;;;;5073988;28;19931;-46
2022/03/15 03:31:07;;;;;;;;;;;21.40;37.40;;;;;;5075094;28;20364;-45
2022/03/15 03:33:35;;;;;;;;;;;21.40;37.40;;;;;;5074897;28;20008;-43
2022/03/15 03:36:02;;;;;;;;;;;21.40;37.40;;;;;;5074028;28;20034;-43
2022/03/15 03:38:30;;;;;;;;;;;21.40;37.40;;;;;;5074473;28;20011;-44
2022/03/15 03:40:57;;;;;;;;;;;21.40;37.40;;;;;;5057116;28;19925;-43
2022/03/15 03:43:25;;;;;;;;;;;21.40;37.40;;;;;;5073541;28;19967;-45
2022/03/15 03:45:52;;;;;;;;;;;21.40;37.40;;;;;;5074660;28;20302;-44
2022/03/15 03:48:19;;;;;;;;;;;21.40;37.40;;;;;;5074348;28;19978;-42
2022/03/15 03:50:46;;;;;;;;;;;21.40;37.40;;;;;;5073554;28;19929;-44
2022/03/15 03:53:13;;;;;;;;;;;21.40;37.40;;;;;;5074260;28;19974;-46
2022/03/15 03:55:40;;;;;;;;;;;21.40;37.40;;;;;;5074166;28;20380;-47
2022/03/15 03:58:07;;;;;;;;;;;21.40;37.40;;;;;;5073767;28;19972;-45
2022/03/15 04:00:35;;;;;;;;;;;21.40;37.40;;;;;;5074103;28;20441;-43
2022/03/15 04:03:02;;;;;;;;;;;21.40;37.40;;;;;;5074064;28;20449;-44
2022/03/15 04:05:35;;;;;;;;;;;21.40;37.40;;;;;;5073477;28;19925;-46
2022/03/15 04:08:02;;;;;;;;;;;21.40;37.40;;;;;;5074887;28;19924;-46
2022/03/15 04:10:34;;;;;;;;;;;21.40;37.40;;;;;;5074329;28;19925;-42
2022/03/15 04:13:02;;;;;;;;;;;21.40;37.40;;;;;;5064000;28;19924;-46
2022/03/15 04:15:31;;;;;;;;;;;21.40;37.30;;;;;;5054136;28;19925;-48
2022/03/15 04:17:59;;;;;;;;;;;21.40;37.40;;;;;;5054707;28;19924;-46
2022/03/15 04:20:26;;;;;;;;;;;21.40;37.40;;;;;;5062813;28;20003;-47
2022/03/15 04:22:52;;;;;;;;;;;21.40;37.40;;;;;;5074004;28;20298;-49
2022/03/15 04:25:19;;;;;;;;;;;21.40;37.40;;;;;;5074062;28;20364;-44
2022/03/15 04:27:46;;;;;;;;;;;21.40;37.40;;;;;;5072413;28;19960;-45
2022/03/15 04:30:14;;;;;;;;;;;21.40;37.30;;;;;;5073991;28;19950;-43
2022/03/15 04:32:41;;;;;;;;;;;21.40;37.30;;;;;;5073679;28;19928;-44
2022/03/15 04:35:08;;;;;;;;;;;21.40;37.40;;;;;;5073187;28;19964;-49
2022/03/15 04:37:35;;;;;;;;;;;21.40;37.40;;;;;;5073967;28;19924;-47
2022/03/15 04:40:03;;;;;;;;;;;21.40;37.40;;;;;;5073918;28;19978;-45
2022/03/15 04:42:30;;;;;;;;;;;21.40;37.40;;;;;;5070624;28;20027;-47
2022/03/15 04:44:57;;;;;;;;;;;21.40;37.30;;;;;;5053474;28;19976;-45
2022/03/15 04:47:24;;;;;;;;;;;21.40;37.30;;;;;;5036188;28;20348;-47
2022/03/15 04:49:50;;;;;;;;;;;21.40;37.30;;;;;;5055418;28;20015;-46
2022/03/15 04:52:17;;;;;;;;;;;21.40;37.40;;;;;;5055533;28;19978;-47
2022/03/15 04:54:45;;;;;;;;;;;21.40;37.30;;;;;;5073507;28;20015;-46
2022/03/15 04:57:12;;;;;;;;;;;21.40;37.30;;;;;;5073784;28;19925;-43
2022/03/15 04:59:39;;;;;;;;;;;21.30;37.30;;;;;;5073024;28;19946;-46
2022/03/15 05:02:06;;;;;;;;;;;21.40;37.90;;;;;;5073389;28;20011;-45
2022/03/15 05:04:34;;;;;;;;;;;21.40;37.30;;;;;;5073612;28;19931;-49
2022/03/15 05:07:01;;;;;;;;;;;21.30;37.30;;;;;;5072651;28;20015;-49
2022/03/15 05:09:33;;;;;;;;;;;21.40;37.40;;;;;;5073945;28;19925;-50
2022/03/15 05:11:59;;;;;;;;;;;21.30;37.30;;;;;;5073629;28;19925;-46
2022/03/15 05:14:26;;;;;;;;;;;21.40;37.40;;;;;;5072591;28;20007;-43
2022/03/15 05:16:53;;;;;;;;;;;21.40;37.40;;;;;;5074461;28;19929;-44
2022/03/15 05:19:20;;;;;;;;;;;21.40;37.30;;;;;;5072922;28;19924;-45
2022/03/15 05:21:47;;;;;;;;;;;21.40;37.30;;;;;;5072150;28;19925;-46
2022/03/15 05:24:16;;;;;;;;;;;21.40;37.30;;;;;;5073396;28;20015;-46
2022/03/15 05:26:43;;;;;;;;;;;21.30;37.30;;;;;;5073712;28;19930;-46
2022/03/15 05:29:10;;;;;;;;;;;21.30;37.30;;;;;;5060782;28;20376;-47
2022/03/15 05:31:37;;;;;;;;;;;21.40;37.30;;;;;;5053132;28;20396;-44
2022/03/15 05:34:04;;;;;;;;;;;21.30;37.20;;;;;;5053934;28;19924;-50
2022/03/15 05:36:31;;;;;;;;;;;21.30;37.20;;;;;;5065473;28;20350;-52
2022/03/15 05:38:58;;;;;;;;;;;21.30;37.20;;;;;;5075748;28;20431;-51
2022/03/15 05:41:25;;;;;;;;;;;21.30;37.20;;;;;;5077048;28;20011;-53
2022/03/15 05:43:54;;;;;;;;;;;21.30;37.20;;;;;;5076156;28;20380;-52
2022/03/15 05:46:21;;;;;;;;;;;21.30;37.20;;;;;;5076953;28;19928;-52
2022/03/15 05:48:49;;;;;;;;;;;21.30;37.20;;;;;;5077031;28;19924;-47
2022/03/15 05:51:16;;;;;;;;;;;21.40;37.30;;;;;;5075886;28;19924;-51
2022/03/15 05:53:42;;;;;;;;;;;21.40;37.30;;;;;;5076544;28;19955;-48
2022/03/15 05:56:10;;;;;;;;;;;21.40;37.20;;;;;;5076465;28;20372;-48
2022/03/15 05:58:37;;;;;;;;;;;21.40;37.20;;;;;;5075996;28;20363;-49
2022/03/15 06:01:04;;;;;;;;;;;21.40;37.20;;;;;;5076301;28;19971;-45
2022/03/15 06:03:31;;;;;;;;;;;21.40;37.20;;;;;;5076352;28;19929;-44
2022/03/15 06:05:58;;;;;;;;;;;21.40;37.20;;;;;;5075464;28;20419;-45
2022/03/15 06:08:25;;;;;;;;;;;21.40;37.20;;;;;;5076479;28;20011;-48
2022/03/15 06:10:52;;;;;;;;;;;21.40;37.20;;;;;;5076212;28;19928;-50
2022/03/15 06:13:19;;;;;;;;;;;21.40;37.20;;;;;;5075454;28;19931;-46
2022/03/15 06:15:46;;;;;;;;;;;21.40;37.10;;;;;;5058363;28;19925;-45
2022/03/15 06:18:13;;;;;;;;;;;21.40;37.10;;;;;;5076007;28;20007;-46
2022/03/15 06:20:40;;;;;;;;;;;21.40;37.10;;;;;;5075011;28;19924;-44
2022/03/15 06:23:07;;;;;;;;;;;21.40;37.10;;;;;;5076321;28;20332;-45
2022/03/15 06:25:34;;;;;;;;;;;21.40;37.10;;;;;;5076749;28;20016;-50
2022/03/15 06:28:01;;;;;;;;;;;21.40;37.10;;;;;;5076126;28;20049;-45
2022/03/15 06:30:28;;;;;;;;;;;21.40;37.00;;;;;;5075444;28;20277;-43
2022/03/15 06:32:55;;;;;;;;;;;21.40;37.00;;;;;;5076128;28;20003;-44
2022/03/15 06:35:22;;;;;;;;;;;21.40;37.00;;;;;;5075745;28;20435;-43
2022/03/15 06:37:50;;;;;;;;;;;21.50;37.10;;;;;;5075422;28;20011;-47
2022/03/15 06:40:23;;;;;;;;;;;21.50;37.00;;;;;;5075639;28;19924;-51
2022/03/15 06:42:50;;;;;;;;;;;21.50;37.00;;;;;;5075969;28;19924;-43
2022/03/15 06:45:17;;;;;;;;;;;21.50;37.00;;;;;;5056861;28;20026;-44
2022/03/15 06:47:44;;;;;;;;;;;21.50;36.90;;;;;;5075845;28;19970;-43
2022/03/15 06:50:12;;;;;;;;;;;21.50;36.90;;;;;;5075176;28;20300;-45
2022/03/15 06:52:41;;;;;;;;;;;21.50;36.90;;;;;;5074279;28;19924;-47
2022/03/15 06:55:08;;;;;;;;;;;21.50;36.90;;;;;;5075856;28;19925;-42
2022/03/15 06:57:35;;;;;;;;;;;21.50;36.90;;;;;;5075313;28;20442;-47
2022/03/15 07:00:07;;;;;;;;;;;21.50;36.90;;;;;;5074806;28;19986;-42
2022/03/15 07:02:34;;;;;;;;;;;21.50;36.80;;;;;;5075215;28;20015;-49
2022/03/15 07:05:01;;;;;;;;;;;21.50;36.80;;;;;;5075130;28;19932;-43
2022/03/15 07:07:28;;;;;;;;;;;21.60;36.80;;;;;;5074381;28;19971;-47
2022/03/15 07:09:55;;;;;;;;;;;21.60;36.80;;;;;;5075094;28;20427;-44
2022/03/15 07:12:24;;;;;;;;;;;21.60;36.80;;;;;;5075375;28;20292;-43
2022/03/15 07:14:51;;;;;;;;;;;21.60;36.70;;;;;;5074276;28;19924;-48
2022/03/15 07:17:19;;;;;;;;;;;21.60;36.70;;;;;;5074909;28;19975;-43
2022/03/15 07:19:46;;;;;;;;;;;21.60;36.70;;;;;;5074836;28;19924;-46
2022/03/15 07:22:13;;;;;;;;;;;21.60;36.70;;;;;;5073606;28;20436;-47
2022/03/15 07:24:40;;;;;;;;;;;21.60;36.70;;;;;;5075040;28;19936;-43
2022/03/15 07:27:07;;;;;;;;;;;21.60;36.70;;;;;;5075034;28;19928;-43
2022/03/15 07:29:34;;;;;;;;;;;21.60;36.70;;;;;;5073933;28;20003;-45
2022/03/15 07:32:01;;;;;;;;;;;21.60;36.60;;;;;;5074940;28;20319;-48
2022/03/15 07:34:28;;;;;;;;;;;21.70;36.60;;;;;;5074890;28;20328;-43
2022/03/15 07:36:55;;;;;;;;;;;21.70;36.60;;;;;;5056381;28;20355;-47
2022/03/15 07:39:22;;;;;;;;;;;21.70;36.60;;;;;;5074745;28;19975;-46
2022/03/15 07:41:50;;;;;;;;;;;21.70;36.60;;;;;;5074388;28;20442;-46
2022/03/15 07:44:18;;;;;;;;;;;21.70;36.50;;;;;;5074026;28;19924;-45
2022/03/15 07:46:51;;;;;;;;;;;21.70;36.50;;;;;;5074516;28;19974;-51
2022/03/15 07:49:18;;;;;;;;;;;21.70;36.50;;;;;;5074317;28;19933;-44
2022/03/15 07:51:46;;;;;;;;;;;21.70;36.40;;;;;;5073436;28;19932;-45
2022/03/15 07:54:13;;;;;;;;;;;21.70;36.40;;;;;;5074449;28;19928;-46
2022/03/15 07:56:40;;;;;;;;;;;21.80;36.40;;;;;;5074409;28;20374;-45
2022/03/15 07:59:07;;;;;;;;;;;21.80;36.40;;;;;;5074467;28;20363;-44
2022/03/15 08:01:35;;;;;;;;;;;21.80;36.40;;;;;;5072740;28;20019;-44
2022/03/15 08:04:02;;;;;;;;;;;21.80;36.40;;;;;;5074029;28;19953;-48
2022/03/15 08:06:30;;;;;;;;;;;21.80;36.30;;;;;;5074176;28;19925;-47
2022/03/15 08:08:58;;;;;;;;;;;21.80;36.20;;;;;;5073748;28;19924;-46
2022/03/15 08:11:26;;;;;;;;;;;21.80;36.20;;;;;;5074310;28;20410;-45
2022/03/15 08:13:53;;;;;;;;;;;21.80;36.20;;;;;;5073835;28;19928;-45
2022/03/15 08:16:22;;;;;;;;;;;21.90;36.20;;;;;;5073034;28;19925;-44
2022/03/15 08:18:52;;;;;;;;;;;21.90;36.20;;;;;;5073807;28;19928;-46
2022/03/15 08:21:20;;;;;;;;;;;21.90;36.20;;;;;;5073441;28;19966;-46
2022/03/15 08:23:47;;;;;;;;;;;21.90;36.20;;;;;;5073256;28;19963;-46
2022/03/15 08:26:15;;;;;;;;;;;21.90;36.10;;;;;;5073656;28;19928;-45
2022/03/15 08:28:42;;;;;;;;;;;21.90;36.00;;;;;;5073726;28;19924;-49
2022/03/15 08:31:09;;;;;;;;;;;22.00;36.10;;;;;;5073229;28;20341;-47
2022/03/15 08:33:36;;;;;;;;;;;22.00;36.00;;;;;;5073954;28;19967;-47
2022/03/15 08:36:03;;;;;;;;;;;22.00;36.00;;;;;;5073614;28;19932;-43
2022/03/15 08:38:30;;;;;;;;;;;22.00;36.00;;;;;;5073150;28;19994;-48
2022/03/15 08:40:57;;;;;;;;;;;22.00;35.90;;;;;;5073912;28;20331;-48
2022/03/15 08:43:24;;;;;;;;;;;22.00;35.90;;;;;;5073871;28;20023;-46
2022/03/15 08:45:52;;;;;;;;;;;22.10;36.00;;;;;;5073019;28;20287;-46
2022/03/15 08:48:19;;;;;;;;;;;22.10;35.90;;;;;;5073540;28;19968;-44
2022/03/15 08:50:46;;;;;;;;;;;22.10;35.80;;;;;;5073721;28;19924;-53
2022/03/15 08:53:13;;;;;;;;;;;22.10;35.80;;;;;;5072967;28;20304;-52
2022/03/15 08:55:40;;;;;;;;;;;22.10;35.70;;;;;;5073428;28;19929;-51
2022/03/15 08:58:07;;;;;;;;;;;22.10;35.70;;;;;;5073744;28;19925;-46
2022/03/15 09:00:34;;;;;;;;;;;22.20;35.80;;;;;;5072685;28;19986;-53
2022/03/15 09:03:01;;;;;;;;;;;22.20;35.70;;;;;;5073711;28;19925;-50
2022/03/15 09:05:28;;;;;;;;;;;22.20;35.70;;;;;;5073625;28;20070;-54
2022/03/15 09:07:56;;;;;;;;;;;22.20;35.70;;;;;;5067370;28;19975;-53
2022/03/15 09:10:24;;;;;;;;;;;22.20;35.60;;;;;;5054109;28;19931;-50
2022/03/15 09:12:52;;;;;;;;;;;22.20;35.60;;;;;;5054200;28;20392;-47
2022/03/15 09:15:20;;;;;;;;;;;22.30;35.60;;;;;;5057149;28;19925;-46
2022/03/15 09:17:47;;;;;;;;;;;22.30;35.50;;;;;;5076882;28;20011;-48
2022/03/15 09:20:23;;;;;;;;;;;22.40;35.50;;;;;;5077160;28;19999;-47
2022/03/15 09:22:50;;;;;;;;;;;22.40;35.50;;;;;;5076124;28;20020;-51
2022/03/15 09:25:17;;;;;;;;;;;22.40;35.40;;;;;;5076900;28;19925;-50
2022/03/15 09:27:46;;;;;;;;;;;22.40;35.30;;;;;;5077256;28;19974;-48
2022/03/15 09:30:13;;;;;;;;;;;22.40;35.30;;;;;;5077170;28;19973;-46
2022/03/15 09:32:40;;;;;;;;;;;22.50;35.30;;;;;;5076018;28;19979;-46
2022/03/15 09:35:08;;;;;;;;;;;22.50;35.30;;;;;;5076810;28;20007;-47
2022/03/15 09:37:35;;;;;;;;;;;22.50;35.20;;;;;;5075950;28;20332;-50
2022/03/15 09:40:08;;;;;;;;;;;22.50;35.10;;;;;;5059455;28;19924;-46
2022/03/15 09:42:36;;;;;;;;;;;22.50;35.10;;;;;;5076551;28;19928;-45
2022/03/15 09:45:04;;;;;;;;;;;22.60;35.10;;;;;;5077347;28;19932;-45
2022/03/15 09:47:32;;;;;;;;;;;22.60;35.00;;;;;;5076163;28;19924;-46
2022/03/15 09:50:01;;;;;;;;;;;22.60;35.00;;;;;;5076561;28;20380;-46
2022/03/15 09:52:28;;;;;;;;;;;22.60;34.90;;;;;;5076208;28;19924;-47
2022/03/15 09:54:56;;;;;;;;;;;22.60;34.90;;;;;;5075688;28;20399;-45
2022/03/15 09:57:23;;;;;;;;;;;22.70;35.00;;;;;;5076710;28;19976;-44
2022/03/15 09:59:50;;;;;;;;;;;22.70;34.90;;;;;;5076338;28;19932;-43
2022/03/15 10:02:18;;;;;;;;;;;22.60;34.80;;;;;;5075594;28;19975;-45
2022/03/15 10:04:48;;;;;;;;;;;22.60;34.90;;;;;;5076294;28;19962;-43
2022/03/15 10:07:15;;;;;;;;;;;22.60;34.90;;;;;;5076492;28;19925;-46
2022/03/15 10:09:42;;;;;;;;;;;22.60;34.90;;;;;;5075453;28;19967;-47
2022/03/15 10:12:09;;;;;;;;;;;22.60;34.90;;;;;;5076484;28;19924;-44
2022/03/15 10:14:40;;;;;;;;;;;22.60;34.90;;;;;;5076139;28;19925;-47
2022/03/15 10:17:07;;;;;;;;;;;22.60;34.90;;;;;;5075328;28;19924;-46
2022/03/15 10:19:35;;;;;;;;;;;22.60;34.90;;;;;;5076378;28;20031;-46
2022/03/15 10:22:04;;;;;;;;;;;22.60;35.00;;;;;;5075563;28;19970;-45
2022/03/15 10:24:38;;;;;;;;;;;22.60;34.90;;;;;;5073851;28;20334;-47
2022/03/15 10:27:06;;;;;;;;;;;22.70;35.00;;;;;;5075659;28;19972;-46
2022/03/15 10:29:34;;;;;;;;;;;22.70;35.00;;;;;;5075853;28;20380;-47
2022/03/15 10:32:02;;;;;;;;;;;22.70;35.00;;;;;;5069325;28;20335;-47
2022/03/15 10:34:29;;;;;;;;;;;22.70;35.00;;;;;;5055790;28;19939;-48
2022/03/15 10:36:57;;;;;;;;;;;22.70;34.90;;;;;;5055722;28;19972;-45
2022/03/15 10:39:24;;;;;;;;;;;22.70;34.90;;;;;;5065564;28;19931;-47
2022/03/15 10:42:03;;;;;;;;;;;22.70;34.90;;;;;;5075767;28;20015;-45
2022/03/15 10:44:30;;;;;;;;;;;22.70;34.90;;;;;;5075883;28;19974;-45
2022/03/15 10:47:03;;;;;;;;;;;22.70;34.90;;;;;;5075051;28;19986;-47
2022/03/15 10:49:31;;;;;;;;;;;22.70;34.90;;;;;;5075507;28;20379;-46
2022/03/15 10:51:58;;;;;;;;;;;22.70;34.90;;;;;;5075733;28;19932;-47
2022/03/15 10:54:26;;;;;;;;;;;22.70;34.90;;;;;;5074972;28;19928;-46
2022/03/15 10:56:54;;;;;;;;;;;22.70;34.90;;;;;;5075490;28;20353;-46
2022/03/15 10:59:22;;;;;;;;;;;22.80;35.60;;;;;;5075630;28;19956;-48
2022/03/15 11:01:50;;;;;;;;;;;22.80;34.90;;;;;;5074791;28;19935;-43
2022/03/15 11:04:18;;;;;;;;;;;22.80;34.90;;;;;;5075187;28;19924;-44
2022/03/15 11:06:47;;;;;;;;;;;22.80;34.80;;;;;;5075047;28;20434;-48
2022/03/15 11:09:18;;;;;;;;;;;22.80;34.80;;;;;;5074608;28;20007;-48
2022/03/15 11:11:59;;;;;;;;;;;22.80;35.00;;;;;;5075322;28;19986;-45
2022/03/15 11:14:40;;;;;;;;;;;22.80;34.80;;;;;;5074741;28;19973;-45
2022/03/15 11:17:15;;;;;;;;;;;22.80;34.80;;;;;;5074192;28;19971;-45
2022/03/15 11:19:46;;;;;;;;;;;22.80;34.80;;;;;;5075126;28;19929;-46
2022/03/15 11:22:15;;;;;;;;;;;22.90;34.80;;;;;;5074458;28;19967;-45
2022/03/15 11:24:43;;;;;;;;;;;22.90;34.80;;;;;;5074253;28;19924;-47
2022/03/15 11:27:14;;;;;;;;;;;22.90;34.80;;;;;;5056789;28;19974;-47
2022/03/15 11:29:42;;;;;;;;;;;22.90;34.80;;;;;;5075081;28;19978;-47
2022/03/15 11:32:10;;;;;;;;;;;22.90;34.90;;;;;;5073543;28;19967;-45
2022/03/15 11:34:40;;;;;;;;;;;22.90;34.80;;;;;;5074601;28;19967;-46
2022/03/15 11:37:10;;;;;;;;;;;22.90;34.80;;;;;;5074689;28;20343;-48
2022/03/15 11:39:38;;;;;;;;;;;22.90;34.80;;;;;;5073711;28;20424;-45
2022/03/15 11:42:09;;;;;;;;;;;22.90;34.80;;;;;;5074445;28;20391;-48
2022/03/15 11:44:52;;;;;;;;;;;23.00;34.80;;;;;;5056995;28;19974;-50
2022/03/15 11:47:22;;;;;;;;;;;23.00;34.80;;;;;;5073589;28;20027;-48
2022/03/15 11:50:11;;;;;;;;;;;23.00;34.80;;;;;;5074518;28;20281;-46
2022/03/15 11:52:39;;;;;;;;;;;23.00;34.80;;;;;;5074055;28;20445;-50
2022/03/15 11:55:12;;;;;;;;;;;23.00;34.80;;;;;;5073340;28;19924;-47
2022/03/15 11:57:49;;;;;;;;;;;23.00;34.80;;;;;;5073963;28;20018;-45
2022/03/15 12:00:29;;;;;;;;;;;23.00;34.80;;;;;;5074161;28;20026;-45
2022/03/15 12:02:59;;;;;;;;;;;23.00;34.70;;;;;;5068073;28;19928;-47
2022/03/15 12:05:27;;;;;;;;;;;23.10;34.80;;;;;;5054279;28;19932;-47
2022/03/15 12:08:13;;;;;;;;;;;23.10;34.80;;;;;;5053928;28;19982;-53
2022/03/15 12:10:46;;;;;;;;;;;23.10;34.80;;;;;;5053943;28;19925;-52
2022/03/15 12:13:36;;;;;;;;;;;23.10;34.80;;;;;;5054875;28;20285;-52
2022/03/15 12:16:24;;;;;;;;;;;23.10;34.80;;;;;;5053894;28;20438;-50
2022/03/15 12:19:06;;;;;;;;;;;23.10;34.80;;;;;;5065628;28;19924;-52
2022/03/15 12:21:47;;;;;;;;;;;23.10;34.80;;;;;;5073466;28;19974;-48
2022/03/15 12:24:19;;;;;;;;;;;23.10;34.80;;;;;;5073587;28;20008;-48
2022/03/15 12:26:58;;;;;;;;;;;23.10;34.80;;;;;;5073991;28;20283;-53
2022/03/15 12:29:27;;;;;;;;;;;23.10;34.80;;;;;;5074109;28;19990;-49
2022/03/15 12:31:56;;;;;;;;;;;23.10;34.80;;;;;;5073999;28;20286;-51
2022/03/15 12:34:24;;;;;;;;;;;23.10;34.80;;;;;;5072894;28;20453;-48
2022/03/15 12:36:51;;;;;;;;;;;23.10;34.90;;;;;;5073518;28;20376;-49
2022/03/15 12:39:19;;;;;;;;;;;23.10;34.90;;;;;;5073875;28;19924;-48
2022/03/15 12:41:47;;;;;;;;;;;23.10;34.80;;;;;;5072785;28;19925;-49
2022/03/15 12:44:14;;;;;;;;;;;23.10;34.90;;;;;;5073581;28;19978;-45
2022/03/15 12:46:42;;;;;;;;;;;23.10;34.90;;;;;;5073774;28;19924;-47
2022/03/15 12:49:12;;;;;;;;;;;23.10;35.00;;;;;;5072600;28;19978;-48
2022/03/15 12:51:41;;;;;;;;;;;23.10;35.00;;;;;;5073217;28;20318;-51
2022/03/15 12:54:12;;;;;;;;;;;23.10;35.00;;;;;;5073834;28;20019;-45
2022/03/15 12:56:48;;;;;;;;;;;23.10;35.00;;;;;;5056907;28;20023;-52
2022/03/15 12:59:23;;;;;;;;;;;23.10;34.90;;;;;;5053461;28;19925;-46
2022/03/15 13:01:51;;;;;;;;;;;23.20;35.00;;;;;;5054273;28;19931;-50
2022/03/15 13:04:26;;;;;;;;;;;23.20;34.90;;;;;;5065604;28;20384;-46
2022/03/15 13:06:57;;;;;;;;;;;23.20;34.90;;;;;;5073571;28;19935;-47
2022/03/15 13:09:24;;;;;;;;;;;23.20;34.90;;;;;;5073714;28;19924;-44
2022/03/15 13:11:53;;;;;;;;;;;23.30;35.00;;;;;;5054750;28;19925;-44
2022/03/15 13:14:27;;;;;;;;;;;23.30;35.00;;;;;;5073300;28;19974;-48
2022/03/15 13:16:57;;;;;;;;;;;23.20;35.00;;;;;;5073137;28;19924;-49
2022/03/15 13:19:26;;;;;;;;;;;23.20;35.00;;;;;;5072385;28;20022;-46
2022/03/15 13:21:53;;;;;;;;;;;23.20;35.00;;;;;;5072689;28;20446;-47
2022/03/15 13:24:24;;;;;;;;;;;23.20;35.00;;;;;;5073156;28;20402;-46
2022/03/15 13:26:59;;;;;;;;;;;23.20;35.00;;;;;;5072205;28;19951;-44
2022/03/15 13:29:27;;;;;;;;;;;23.30;35.10;;;;;;5039520;28;19928;-45
2022/03/15 13:31:55;;;;;;;;;;;23.20;35.00;;;;;;5072762;28;19924;-47
2022/03/15 13:34:23;;;;;;;;;;;23.30;35.10;;;;;;5072773;28;19929;-45
2022/03/15 13:36:51;;;;;;;;;;;23.30;35.10;;;;;;5073139;28;20023;-48
2022/03/15 13:39:20;;;;;;;;;;;23.30;35.10;;;;;;5055764;28;19924;-48
2022/03/15 13:41:51;;;;;;;;;;;23.30;35.10;;;;;;5072577;28;19924;-44
2022/03/15 13:44:22;;;;;;;;;;;23.30;35.20;;;;;;5073417;28;19985;-44
2022/03/15 13:46:51;;;;;;;;;;;23.30;35.20;;;;;;5073007;28;19924;-44
2022/03/15 13:49:20;;;;;;;;;;;23.30;35.20;;;;;;5072282;28;19928;-48
2022/03/15 13:51:49;;;;;;;;;;;23.30;35.20;;;;;;5072658;28;19929;-46
2022/03/15 13:54:17;;;;;;;;;;;23.30;35.20;;;;;;5073008;28;19990;-43
2022/03/15 13:56:47;;;;;;;;;;;23.20;35.20;;;;;;5061119;28;19925;-47
2022/03/15 13:59:24;;;;;;;;;;;23.30;35.30;;;;;;5053185;28;20278;-47
2022/03/15 14:01:58;;;;;;;;;;;23.30;35.30;;;;;;5056401;28;19929;-49
2022/03/15 14:04:27;;;;;;;;;;;23.30;35.30;;;;;;5062719;28;19924;-48
2022/03/15 14:07:00;;;;;;;;;;;23.30;35.30;;;;;;5076617;28;19925;-48
2022/03/15 14:09:28;;;;;;;;;;;23.20;35.30;;;;;;5076308;28;19970;-49
2022/03/15 14:12:13;;;;;;;;;;;23.20;35.40;;;;;;5075428;28;19928;-45
2022/03/15 14:14:52;;;;;;;;;;;23.20;35.40;;;;;;5076125;28;20022;-46
2022/03/15 14:17:22;;;;;;;;;;;23.20;35.40;;;;;;5076476;28;19924;-50
2022/03/15 14:19:52;;;;;;;;;;;23.20;35.40;;;;;;5066585;28;20273;-47
2022/03/15 14:22:22;;;;;;;;;;;23.20;35.50;;;;;;5055707;28;19964;-48
2022/03/15 14:24:55;;;;;;;;;;;23.20;35.50;;;;;;5056310;28;20015;-48